sensor_id;sensor_type;location;lat;lon;timestamp;pressure;altitude;pressure_sealevel;temperature;humidity
73651;BME280;61944;52.538;6.108;2023-03-01T00:01:58;103178.75;;;1.13;100.00
73651;BME280;61944;52.538;6.108;2023-03-01T00:04:23;103168.16;;;1.05;100.00
73651;BME280;61944;52.538;6.108;2023-03-01T00:06:49;103172.91;;;1.09;100.00
73651;BME280;61944;52.538;6.108;2023-03-01T00:09:15;103164.03;;;1.07;100.00
73651;BME280;61944;52.538;6.108;2023-03-01T00:11:40;103159.38;;;1.08;100.00
73651;BME280;61944;52.538;6.108;2023-03-01T00:14:06;103166.56;;;1.09;100.00
73651;BME280;61944;52.538;6.108;2023-03-01T00:16:38;103164.81;;;1.02;100.00
73651;BME280;61944;52.538;6.108;2023-03-01T00:19:05;103171.44;;;1.01;100.00
73651;BME280;61944;52.538;6.108;2023-03-01T00:21:31;103167.56;;;1.02;100.00
73651;BME280;61944;52.538;6.108;2023-03-01T00:23:57;103167.53;;;0.97;100.00
73651;BME280;61944;52.538;6.108;2023-03-01T00:26:25;103157.28;;;0.93;100.00
73651;BME280;61944;52.538;6.108;2023-03-01T00:28:51;103165.94;;;1.01;100.00
73651;BME280;61944;52.538;6.108;2023-03-01T00:31:19;103155.34;;;0.93;100.00
73651;BME280;61944;52.538;6.108;2023-03-01T00:33:45;103148.72;;;0.94;100.00
73651;BME280;61944;52.538;6.108;2023-03-01T00:36:12;103148.09;;;0.87;100.00
73651;BME280;61944;52.538;6.108;2023-03-01T00:38:40;103144.22;;;0.88;100.00
73651;BME280;61944;52.538;6.108;2023-03-01T00:41:09;103146.25;;;0.93;100.00
73651;BME280;61944;52.538;6.108;2023-03-01T00:43:34;103150.59;;;0.89;100.00
73651;BME280;61944;52.538;6.108;2023-03-01T00:46:06;103148.91;;;0.88;100.00
73651;BME280;61944;52.538;6.108;2023-03-01T00:48:32;103150.53;;;0.84;100.00
73651;BME280;61944;52.538;6.108;2023-03-01T00:51:07;103143.06;;;0.84;100.00
73651;BME280;61944;52.538;6.108;2023-03-01T00:53:34;103152.44;;;0.83;100.00
73651;BME280;61944;52.538;6.108;2023-03-01T00:56:00;103145.25;;;0.82;100.00
73651;BME280;61944;52.538;6.108;2023-03-01T00:58:26;103140.59;;;0.83;100.00
73651;BME280;61944;52.538;6.108;2023-03-01T01:00:51;103128.66;;;0.77;100.00
73651;BME280;61944;52.538;6.108;2023-03-01T01:03:18;103133.06;;;0.78;100.00
73651;BME280;61944;52.538;6.108;2023-03-01T01:05:43;103138.59;;;0.78;100.00
73651;BME280;61944;52.538;6.108;2023-03-01T01:08:08;103133.06;;;0.78;100.00
73651;BME280;61944;52.538;6.108;2023-03-01T01:10:34;103129.72;;;0.76;100.00
73651;BME280;61944;52.538;6.108;2023-03-01T01:13:00;103139.06;;;0.70;100.00
73651;BME280;61944;52.538;6.108;2023-03-01T01:15:25;103132.97;;;0.68;100.00
73651;BME280;61944;52.538;6.108;2023-03-01T01:17:51;103138.78;;;0.71;100.00
73651;BME280;61944;52.538;6.108;2023-03-01T01:20:17;103131.59;;;0.70;100.00
73651;BME280;61944;52.538;6.108;2023-03-01T01:22:42;103126.88;;;0.66;100.00
73651;BME280;61944;52.538;6.108;2023-03-01T01:25:08;103128.78;;;0.65;100.00
73651;BME280;61944;52.538;6.108;2023-03-01T01:27:33;103135.97;;;0.66;100.00
73651;BME280;61944;52.538;6.108;2023-03-01T01:29:59;103133.22;;;0.66;100.00
73651;BME280;61944;52.538;6.108;2023-03-01T01:32:24;103119.34;;;0.61;100.00
73651;BME280;61944;52.538;6.108;2023-03-01T01:34:50;103119.09;;;0.63;100.00
73651;BME280;61944;52.538;6.108;2023-03-01T01:37:15;103115.25;;;0.64;100.00
73651;BME280;61944;52.538;6.108;2023-03-01T01:39:40;103121.34;;;0.66;100.00
73651;BME280;61944;52.538;6.108;2023-03-01T01:42:12;103122.09;;;0.61;100.00
73651;BME280;61944;52.538;6.108;2023-03-01T01:44:40;103107.25;;;0.62;100.00
73651;BME280;61944;52.538;6.108;2023-03-01T01:47:11;103107.75;;;0.59;100.00
73651;BME280;61944;52.538;6.108;2023-03-01T01:52:26;103107.75;;;0.59;100.00
73651;BME280;61944;52.538;6.108;2023-03-01T01:57:31;103104.09;;;0.53;100.00
73651;BME280;61944;52.538;6.108;2023-03-01T02:00:03;103102.94;;;0.49;100.00
73651;BME280;61944;52.538;6.108;2023-03-01T02:02:29;103093.31;;;0.52;100.00
73651;BME280;61944;52.538;6.108;2023-03-01T02:05:03;103091.09;;;0.49;100.00
73651;BME280;61944;52.538;6.108;2023-03-01T02:07:37;103088.91;;;0.51;100.00
73651;BME280;61944;52.538;6.108;2023-03-01T02:10:03;103095.94;;;0.42;100.00
73651;BME280;61944;52.538;6.108;2023-03-01T02:12:29;103093.75;;;0.44;100.00
73651;BME280;61944;52.538;6.108;2023-03-01T02:14:54;103078.63;;;0.46;100.00
73651;BME280;61944;52.538;6.108;2023-03-01T02:17:21;103080.25;;;0.42;100.00
73651;BME280;61944;52.538;6.108;2023-03-01T02:20:16;103086.28;;;0.39;100.00
73651;BME280;61944;52.538;6.108;2023-03-01T02:22:45;103085.75;;;0.42;100.00
73651;BME280;61944;52.538;6.108;2023-03-01T02:25:27;103085.25;;;0.45;100.00
73651;BME280;61944;52.538;6.108;2023-03-01T02:30:42;103086.28;;;0.39;100.00
73651;BME280;61944;52.538;6.108;2023-03-01T02:33:28;103080.75;;;0.39;100.00
73651;BME280;61944;52.538;6.108;2023-03-01T02:35:54;103085.94;;;0.35;100.00
73651;BME280;61944;52.538;6.108;2023-03-01T02:38:21;103080.25;;;0.42;100.00
73651;BME280;61944;52.538;6.108;2023-03-01T02:40:50;103083.50;;;0.39;100.00
73651;BME280;61944;52.538;6.108;2023-03-01T02:43:17;103076.03;;;0.34;100.00
73651;BME280;61944;52.538;6.108;2023-03-01T02:45:53;103068.00;;;0.33;100.00
73651;BME280;61944;52.538;6.108;2023-03-01T02:48:22;103072.16;;;0.35;100.00
73651;BME280;61944;52.538;6.108;2023-03-01T02:53:29;103059.75;;;0.33;100.00
73651;BME280;61944;52.538;6.108;2023-03-01T02:55:58;103049.25;;;0.30;100.00
73651;BME280;61944;52.538;6.108;2023-03-01T02:58:24;103056.41;;;0.31;100.00
73651;BME280;61944;52.538;6.108;2023-03-01T03:00:50;103040.41;;;0.28;100.00
73651;BME280;61944;52.538;6.108;2023-03-01T03:03:17;103039.28;;;0.29;100.00
73651;BME280;61944;52.538;6.108;2023-03-01T03:05:44;103045.06;;;0.27;100.00
73651;BME280;61944;52.538;6.108;2023-03-01T03:08:09;103047.94;;;0.15;100.00
73651;BME280;61944;52.538;6.108;2023-03-01T03:10:39;103059.09;;;0.26;100.00
73651;BME280;61944;52.538;6.108;2023-03-01T03:13:10;103042.56;;;0.26;100.00
73651;BME280;61944;52.538;6.108;2023-03-01T03:15:36;103046.41;;;0.25;100.00
73651;BME280;61944;52.538;6.108;2023-03-01T03:18:04;103046.66;;;0.23;100.00
73651;BME280;61944;52.538;6.108;2023-03-01T03:20:30;103039.44;;;0.17;100.00
73651;BME280;61944;52.538;6.108;2023-03-01T03:22:57;103039.25;;;0.24;100.00
73651;BME280;61944;52.538;6.108;2023-03-01T03:25:27;103032.63;;;0.25;100.00
73651;BME280;61944;52.538;6.108;2023-03-01T03:27:53;103034.38;;;0.31;100.00
73651;BME280;61944;52.538;6.108;2023-03-01T03:30:23;103035.47;;;0.30;100.00
73651;BME280;61944;52.538;6.108;2023-03-01T03:32:49;103029.38;;;0.28;100.00
73651;BME280;61944;52.538;6.108;2023-03-01T03:35:30;103020.84;;;0.29;100.00
73651;BME280;61944;52.538;6.108;2023-03-01T03:37:57;103027.69;;;0.27;100.00
73651;BME280;61944;52.538;6.108;2023-03-01T03:40:50;103025.47;;;0.24;100.00
73651;BME280;61944;52.538;6.108;2023-03-01T03:43:18;103033.28;;;0.32;100.00
73651;BME280;61944;52.538;6.108;2023-03-01T03:45:46;103026.69;;;0.33;100.00
73651;BME280;61944;52.538;6.108;2023-03-01T03:48:11;103035.91;;;0.22;100.00
73651;BME280;61944;52.538;6.108;2023-03-01T03:50:38;103030.41;;;0.22;100.00
73651;BME280;61944;52.538;6.108;2023-03-01T03:53:06;103035.31;;;0.19;100.00
73651;BME280;61944;52.538;6.108;2023-03-01T03:55:32;103037.56;;;0.23;100.00
73651;BME280;61944;52.538;6.108;2023-03-01T03:57:59;103032.06;;;0.23;100.00
73651;BME280;61944;52.538;6.108;2023-03-01T04:00:31;103035.81;;;0.16;100.00
73651;BME280;61944;52.538;6.108;2023-03-01T04:02:57;103027.84;;;0.15;100.00
73651;BME280;61944;52.538;6.108;2023-03-01T04:05:23;103031.91;;;0.12;100.00
73651;BME280;61944;52.538;6.108;2023-03-01T04:07:48;103037.94;;;0.09;100.00
73651;BME280;61944;52.538;6.108;2023-03-01T04:10:16;103047.34;;;0.13;100.00
73651;BME280;61944;52.538;6.108;2023-03-01T04:12:42;103040.09;;;0.07;100.00
73651;BME280;61944;52.538;6.108;2023-03-01T04:15:12;103046.97;;;0.05;100.00
73651;BME280;61944;52.538;6.108;2023-03-01T04:17:46;103047.78;;;0.05;100.00
73651;BME280;61944;52.538;6.108;2023-03-01T04:20:14;103046.63;;;0.01;100.00
73651;BME280;61944;52.538;6.108;2023-03-01T04:22:43;103044.63;;;-0.04;100.00
73651;BME280;61944;52.538;6.108;2023-03-01T04:25:11;103039.38;;;-0.05;100.00
73651;BME280;61944;52.538;6.108;2023-03-01T04:27:39;103050.47;;;0.00;100.00
73651;BME280;61944;52.538;6.108;2023-03-01T04:30:05;103037.72;;;-0.06;100.00
73651;BME280;61944;52.538;6.108;2023-03-01T04:32:31;103038.16;;;-0.14;100.00
73651;BME280;61944;52.538;6.108;2023-03-01T04:34:57;103048.81;;;-0.18;100.00
73651;BME280;61944;52.538;6.108;2023-03-01T04:37:23;103041.22;;;-0.28;100.00
73651;BME280;61944;52.538;6.108;2023-03-01T04:39:52;103038.16;;;-0.14;100.00
73651;BME280;61944;52.538;6.108;2023-03-01T04:42:18;103036.16;;;-0.19;100.00
73651;BME280;61944;52.538;6.108;2023-03-01T04:44:44;103036.47;;;-0.15;100.00
73651;BME280;61944;52.538;6.108;2023-03-01T04:47:09;103038.47;;;-0.28;100.00
73651;BME280;61944;52.538;6.108;2023-03-01T04:49:35;103023.72;;;-0.22;100.00
73651;BME280;61944;52.538;6.108;2023-03-01T04:52:00;103020.91;;;-0.27;100.00
73651;BME280;61944;52.538;6.108;2023-03-01T04:54:29;103020.78;;;-0.32;100.00
73651;BME280;61944;52.538;6.108;2023-03-01T04:56:55;103007.97;;;-0.26;100.00
73651;BME280;61944;52.538;6.108;2023-03-01T04:59:20;102999.31;;;-0.35;100.00
73651;BME280;61944;52.538;6.108;2023-03-01T05:01:49;102992.22;;;-0.31;100.00
73651;BME280;61944;52.538;6.108;2023-03-01T05:04:15;102994.44;;;-0.28;100.00
73651;BME280;61944;52.538;6.108;2023-03-01T05:06:40;102994.22;;;-0.43;100.00
73651;BME280;61944;52.538;6.108;2023-03-01T05:09:06;102994.81;;;-0.41;100.00
73651;BME280;61944;52.538;6.108;2023-03-01T05:11:31;102987.38;;;-0.41;100.00
73651;BME280;61944;52.538;6.108;2023-03-01T05:14:05;102986.59;;;-0.36;100.00
73651;BME280;61944;52.538;6.108;2023-03-01T05:16:30;102984.91;;;-0.42;100.00
73651;BME280;61944;52.538;6.108;2023-03-01T05:18:57;102984.81;;;-0.47;100.00
73651;BME280;61944;52.538;6.108;2023-03-01T05:21:22;102984.81;;;-0.47;100.00
73651;BME280;61944;52.538;6.108;2023-03-01T05:23:48;102981.03;;;-0.41;100.00
73651;BME280;61944;52.538;6.108;2023-03-01T05:26:15;102981.47;;;-0.49;100.00
73651;BME280;61944;52.538;6.108;2023-03-01T05:28:40;102974.97;;;-0.43;100.00
73651;BME280;61944;52.538;6.108;2023-03-01T05:31:06;102974.31;;;-0.50;100.00
73651;BME280;61944;52.538;6.108;2023-03-01T05:33:36;102976.13;;;-0.56;100.00
73651;BME280;61944;52.538;6.108;2023-03-01T05:36:02;102976.22;;;-0.51;100.00
73651;BME280;61944;52.538;6.108;2023-03-01T05:38:27;102964.78;;;-0.59;100.00
73651;BME280;61944;52.538;6.108;2023-03-01T05:40:53;102975.31;;;-0.56;100.00
73651;BME280;61944;52.538;6.108;2023-03-01T05:43:18;102971.88;;;-0.64;100.00
73651;BME280;61944;52.538;6.108;2023-03-01T05:45:44;102964.78;;;-0.59;100.00
73651;BME280;61944;52.538;6.108;2023-03-01T05:48:10;102969.47;;;-0.60;100.00
73651;BME280;61944;52.538;6.108;2023-03-01T05:50:41;102956.91;;;-0.73;100.00
73651;BME280;61944;52.538;6.108;2023-03-01T05:53:11;102949.97;;;-0.75;100.00
73651;BME280;61944;52.538;6.108;2023-03-01T05:55:37;102953.03;;;-0.72;100.00
73651;BME280;61944;52.538;6.108;2023-03-01T05:58:06;102954.22;;;-0.68;100.00
73651;BME280;61944;52.538;6.108;2023-03-01T06:00:32;102958.66;;;-0.67;100.00
73651;BME280;61944;52.538;6.108;2023-03-01T06:03:00;102958.41;;;-0.65;100.00
73651;BME280;61944;52.538;6.108;2023-03-01T06:05:27;102964.97;;;-0.66;100.00
73651;BME280;61944;52.538;6.108;2023-03-01T06:07:53;102965.66;;;-0.76;100.00
73651;BME280;61944;52.538;6.108;2023-03-01T06:10:20;102965.97;;;-0.72;100.00
73651;BME280;61944;52.538;6.108;2023-03-01T06:12:46;102961.81;;;-0.75;100.00
73651;BME280;61944;52.538;6.108;2023-03-01T06:15:14;102965.16;;;-0.73;100.00
73651;BME280;61944;52.538;6.108;2023-03-01T06:17:42;102958.22;;;-0.75;100.00
73651;BME280;61944;52.538;6.108;2023-03-01T06:20:13;102952.63;;;-0.80;100.00
73651;BME280;61944;52.538;6.108;2023-03-01T06:22:40;102950.47;;;-0.78;100.00
73651;BME280;61944;52.538;6.108;2023-03-01T06:25:06;102954.31;;;-0.79;100.00
73651;BME280;61944;52.538;6.108;2023-03-01T06:27:32;102961.81;;;-0.75;100.00
73651;BME280;61944;52.538;6.108;2023-03-01T06:29:58;102960.06;;;-0.81;100.00
73651;BME280;61944;52.538;6.108;2023-03-01T06:32:23;102958.13;;;-0.80;100.00
73651;BME280;61944;52.538;6.108;2023-03-01T06:34:49;102949.72;;;-0.91;100.00
73651;BME280;61944;52.538;6.108;2023-03-01T06:37:15;102959.56;;;-0.95;100.00
73651;BME280;61944;52.538;6.108;2023-03-01T06:39:40;102957.06;;;-0.96;100.00
73651;BME280;61944;52.538;6.108;2023-03-01T06:42:07;102969.22;;;-0.92;100.00
73651;BME280;61944;52.538;6.108;2023-03-01T06:44:32;102963.47;;;-0.91;100.00
73651;BME280;61944;52.538;6.108;2023-03-01T06:46:58;102965.94;;;-1.06;100.00
73651;BME280;61944;52.538;6.108;2023-03-01T06:49:24;102976.63;;;-0.93;100.00
73651;BME280;61944;52.538;6.108;2023-03-01T06:51:49;102969.47;;;-0.94;100.00
73651;BME280;61944;52.538;6.108;2023-03-01T06:54:15;102985.72;;;-0.92;100.00
73651;BME280;61944;52.538;6.108;2023-03-01T06:56:40;102977.47;;;-0.92;100.00
73651;BME280;61944;52.538;6.108;2023-03-01T06:59:05;102979.63;;;-0.94;100.00
73651;BME280;61944;52.538;6.108;2023-03-01T07:01:31;102985.97;;;-0.94;100.00
73651;BME280;61944;52.538;6.108;2023-03-01T07:03:56;102979.72;;;-0.89;100.00
73651;BME280;61944;52.538;6.108;2023-03-01T07:06:22;102986.78;;;-0.93;100.00
73651;BME280;61944;52.538;6.108;2023-03-01T07:08:48;102984.63;;;-0.91;100.00
73651;BME280;61944;52.538;6.108;2023-03-01T07:11:14;102984.38;;;-0.90;100.00
73651;BME280;61944;52.538;6.108;2023-03-01T07:13:39;102983.06;;;-0.87;100.00
73651;BME280;61944;52.538;6.108;2023-03-01T07:16:05;102981.41;;;-0.88;100.00
73651;BME280;61944;52.538;6.108;2023-03-01T07:18:31;102981.97;;;-0.86;100.00
73651;BME280;61944;52.538;6.108;2023-03-01T07:20:56;102983.28;;;-0.89;100.00
73651;BME280;61944;52.538;6.108;2023-03-01T07:23:21;102991.13;;;-0.80;100.00
73651;BME280;61944;52.538;6.108;2023-03-01T07:25:53;102986.97;;;-0.83;100.00
73651;BME280;61944;52.538;6.108;2023-03-01T07:28:19;102981.00;;;-0.80;100.00
73651;BME280;61944;52.538;6.108;2023-03-01T07:30:45;102990.88;;;-0.79;100.00
73651;BME280;61944;52.538;6.108;2023-03-01T07:33:10;102992.22;;;-0.82;100.00
73651;BME280;61944;52.538;6.108;2023-03-01T07:35:36;102998.31;;;-0.79;100.00
73651;BME280;61944;52.538;6.108;2023-03-01T07:38:01;102999.88;;;-0.84;100.00
73651;BME280;61944;52.538;6.108;2023-03-01T07:40:26;102993.06;;;-0.81;100.00
73651;BME280;61944;52.538;6.108;2023-03-01T07:42:56;102994.75;;;-0.80;100.00
73651;BME280;61944;52.538;6.108;2023-03-01T07:45:21;102990.72;;;-0.89;100.00
73651;BME280;61944;52.538;6.108;2023-03-01T07:47:47;102987.66;;;-0.76;100.00
73651;BME280;61944;52.538;6.108;2023-03-01T07:50:12;102996.38;;;-0.79;100.00
73651;BME280;61944;52.538;6.108;2023-03-01T07:52:38;102987.97;;;-0.72;100.00
73651;BME280;61944;52.538;6.108;2023-03-01T07:55:04;102995.41;;;-0.73;100.00
73651;BME280;61944;52.538;6.108;2023-03-01T07:57:30;102991.66;;;-0.67;100.00
73651;BME280;61944;52.538;6.108;2023-03-01T07:59:55;102995.47;;;-0.68;100.00
73651;BME280;61944;52.538;6.108;2023-03-01T08:02:20;102999.38;;;-0.64;100.00
73651;BME280;61944;52.538;6.108;2023-03-01T08:04:46;102993.06;;;-0.64;100.00
73651;BME280;61944;52.538;6.108;2023-03-01T08:07:11;102993.66;;;-0.62;100.00
73651;BME280;61944;52.538;6.108;2023-03-01T08:09:37;102997.03;;;-0.55;100.00
73651;BME280;61944;52.538;6.108;2023-03-01T08:12:03;102989.13;;;-0.51;100.00
73651;BME280;61944;52.538;6.108;2023-03-01T08:14:30;102984.16;;;-0.54;100.00
73651;BME280;61944;52.538;6.108;2023-03-01T08:16:55;102977.38;;;-0.47;100.00
73651;BME280;61944;52.538;6.108;2023-03-01T08:19:21;102975.97;;;-0.49;100.00
73651;BME280;61944;52.538;6.108;2023-03-01T08:21:46;102976.63;;;-0.42;100.00
73651;BME280;61944;52.538;6.108;2023-03-01T08:24:11;102972.03;;;-0.36;100.00
73651;BME280;61944;52.538;6.108;2023-03-01T08:26:37;102964.78;;;-0.43;100.00
73651;BME280;61944;52.538;6.108;2023-03-01T08:29:03;102961.34;;;-0.33;100.00
73651;BME280;61944;52.538;6.108;2023-03-01T08:33:58;102956.44;;;-0.31;100.00
73651;BME280;61944;52.538;6.108;2023-03-01T08:36:26;102958.09;;;-0.30;100.00
73651;BME280;61944;52.538;6.108;2023-03-01T08:38:52;102956.91;;;-0.34;100.00
73651;BME280;61944;52.538;6.108;2023-03-01T08:41:17;102963.16;;;-0.22;100.00
73651;BME280;61944;52.538;6.108;2023-03-01T08:43:43;102958.75;;;-0.23;100.00
73651;BME280;61944;52.538;6.108;2023-03-01T08:46:09;102966.91;;;-0.28;100.00
73651;BME280;61944;52.538;6.108;2023-03-01T08:48:35;102961.41;;;-0.28;100.00
73651;BME280;61944;52.538;6.108;2023-03-01T08:51:11;102960.22;;;-0.15;100.00
73651;BME280;61944;52.538;6.108;2023-03-01T08:53:38;102957.22;;;-0.13;100.00
73651;BME280;61944;52.538;6.108;2023-03-01T08:56:03;102950.84;;;-0.19;100.00
73651;BME280;61944;52.538;6.108;2023-03-01T08:58:29;102944.91;;;-0.28;100.00
73651;BME280;61944;52.538;6.108;2023-03-01T09:00:55;102945.88;;;-0.17;100.00
73651;BME280;61944;52.538;6.108;2023-03-01T09:03:22;102947.91;;;-0.12;100.00
73651;BME280;61944;52.538;6.108;2023-03-01T09:05:49;102952.38;;;-0.06;100.00
73651;BME280;61944;52.538;6.108;2023-03-01T09:08:16;102957.59;;;-0.05;100.00
73651;BME280;61944;52.538;6.108;2023-03-01T09:10:41;102959.47;;;-0.10;100.00
73651;BME280;61944;52.538;6.108;2023-03-01T09:13:07;102961.41;;;-0.28;100.00
73651;BME280;61944;52.538;6.108;2023-03-01T09:15:32;102952.66;;;-0.25;100.00
73651;BME280;61944;52.538;6.108;2023-03-01T09:17:58;102952.25;;;-0.16;100.00
73651;BME280;61944;52.538;6.108;2023-03-01T09:20:24;102954.03;;;-0.05;100.00
73651;BME280;61944;52.538;6.108;2023-03-01T09:22:49;102951.72;;;-0.13;100.00
73651;BME280;61944;52.538;6.108;2023-03-01T09:25:14;102947.50;;;0.01;100.00
73651;BME280;61944;52.538;6.108;2023-03-01T09:27:40;102949.09;;;-0.03;100.00
73651;BME280;61944;52.538;6.108;2023-03-01T09:30:06;102938.81;;;0.09;100.00
73651;BME280;61944;52.538;6.108;2023-03-01T09:32:32;102940.44;;;0.10;100.00
73651;BME280;61944;52.538;6.108;2023-03-01T09:34:57;102935.06;;;0.20;100.00
73651;BME280;61944;52.538;6.108;2023-03-01T09:37:33;102935.19;;;0.31;100.00
73651;BME280;61944;52.538;6.108;2023-03-01T09:39:59;102934.03;;;0.27;100.00
73651;BME280;61944;52.538;6.108;2023-03-01T09:42:25;102936.09;;;0.36;100.00
73651;BME280;61944;52.538;6.108;2023-03-01T09:45:03;102934.50;;;0.68;100.00
73651;BME280;61944;52.538;6.108;2023-03-01T09:47:33;102935.69;;;1.09;100.00
73651;BME280;61944;52.538;6.108;2023-03-01T09:50:04;102931.78;;;1.05;100.00
73651;BME280;61944;52.538;6.108;2023-03-01T09:55:13;102927.75;;;1.18;100.00
73651;BME280;61944;52.538;6.108;2023-03-01T10:00:46;102920.75;;;1.37;100.00
73651;BME280;61944;52.538;6.108;2023-03-01T10:03:34;102919.72;;;1.54;100.00
73651;BME280;61944;52.538;6.108;2023-03-01T10:06:04;102917.59;;;1.66;100.00
73651;BME280;61944;52.538;6.108;2023-03-01T10:08:46;102910.50;;;1.80;100.00
73651;BME280;61944;52.538;6.108;2023-03-01T10:11:23;102908.81;;;1.74;100.00
73651;BME280;61944;52.538;6.108;2023-03-01T10:14:06;102907.34;;;2.14;99.84
73651;BME280;61944;52.538;6.108;2023-03-01T10:19:41;102910.75;;;2.47;93.26
73651;BME280;61944;52.538;6.108;2023-03-01T10:22:17;102912.44;;;2.74;89.56
73651;BME280;61944;52.538;6.108;2023-03-01T10:24:47;102910.25;;;2.81;88.88
73651;BME280;61944;52.538;6.108;2023-03-01T10:27:22;102907.47;;;2.76;91.52
73651;BME280;61944;52.538;6.108;2023-03-01T10:30:19;102910.25;;;2.71;93.09
73651;BME280;61944;52.538;6.108;2023-03-01T10:32:48;102912.97;;;2.65;91.04
73651;BME280;61944;52.538;6.108;2023-03-01T10:35:25;102918.56;;;3.07;89.22
73651;BME280;61944;52.538;6.108;2023-03-01T10:38:10;102914.41;;;2.94;91.48
73651;BME280;61944;52.538;6.108;2023-03-01T10:41:10;102912.75;;;3.03;89.17
73651;BME280;61944;52.538;6.108;2023-03-01T10:43:49;102908.00;;;3.39;86.48
73651;BME280;61944;52.538;6.108;2023-03-01T10:46:31;102910.72;;;3.60;86.60
73651;BME280;61944;52.538;6.108;2023-03-01T10:49:18;102900.78;;;3.43;86.60
73651;BME280;61944;52.538;6.108;2023-03-01T10:51:46;102898.00;;;3.54;85.57
73651;BME280;61944;52.538;6.108;2023-03-01T10:54:22;102898.63;;;3.35;87.44
73651;BME280;61944;52.538;6.108;2023-03-01T10:56:54;102896.41;;;3.37;85.98
73651;BME280;61944;52.538;6.108;2023-03-01T10:59:33;102898.03;;;3.38;86.12
73651;BME280;61944;52.538;6.108;2023-03-01T11:02:35;102880.88;;;3.41;86.66
73651;BME280;61944;52.538;6.108;2023-03-01T11:07:52;102876.50;;;4.00;81.01
73651;BME280;61944;52.538;6.108;2023-03-01T11:10:36;102873.03;;;3.74;84.28
73651;BME280;61944;52.538;6.108;2023-03-01T11:13:17;102881.09;;;3.65;83.12
73651;BME280;61944;52.538;6.108;2023-03-01T11:15:43;102879.41;;;3.75;81.74
73651;BME280;61944;52.538;6.108;2023-03-01T11:18:31;102872.25;;;3.53;82.84
73651;BME280;61944;52.538;6.108;2023-03-01T11:20:58;102863.31;;;4.32;80.93
73651;BME280;61944;52.538;6.108;2023-03-01T11:23:25;102857.75;;;4.37;79.81
73651;BME280;61944;52.538;6.108;2023-03-01T11:26:00;102852.06;;;4.57;77.98
73651;BME280;61944;52.538;6.108;2023-03-01T11:28:28;102846.47;;;4.28;80.62
73651;BME280;61944;52.538;6.108;2023-03-01T11:30:56;102853.19;;;4.56;79.67
73651;BME280;61944;52.538;6.108;2023-03-01T11:38:34;102853.19;;;4.56;79.79
73651;BME280;61944;52.538;6.108;2023-03-01T11:52:11;102853.19;;;4.91;78.29
73651;BME280;61944;52.538;6.108;2023-03-01T11:54:55;102854.84;;;4.18;79.64
73651;BME280;61944;52.538;6.108;2023-03-01T12:14:55;102833.25;;;5.66;72.58
73651;BME280;61944;52.538;6.108;2023-03-01T12:18:03;102831.91;;;5.63;75.63
73651;BME280;61944;52.538;6.108;2023-03-01T12:20:40;102833.38;;;5.56;74.47
73651;BME280;61944;52.538;6.108;2023-03-01T12:26:20;102815.31;;;5.05;77.95
73651;BME280;61944;52.538;6.108;2023-03-01T12:28:57;102816.00;;;5.21;76.50
73651;BME280;61944;52.538;6.108;2023-03-01T12:37:17;102799.44;;;5.35;72.41
73651;BME280;61944;52.538;6.108;2023-03-01T12:42:42;102788.66;;;5.76;71.09
73651;BME280;61944;52.538;6.108;2023-03-01T12:50:42;102781.50;;;6.13;70.93
73651;BME280;61944;52.538;6.108;2023-03-01T12:53:27;102794.59;;;5.69;71.82
73651;BME280;61944;52.538;6.108;2023-03-01T12:56:34;102780.19;;;5.43;71.83
73651;BME280;61944;52.538;6.108;2023-03-01T12:59:21;102775.22;;;5.83;69.25
73651;BME280;61944;52.538;6.108;2023-03-01T13:01:59;102776.25;;;5.68;70.33
73651;BME280;61944;52.538;6.108;2023-03-01T13:07:30;102760.81;;;6.00;68.43
73651;BME280;61944;52.538;6.108;2023-03-01T13:10:16;102756.09;;;6.01;69.37
73651;BME280;61944;52.538;6.108;2023-03-01T13:13:00;102754.06;;;5.44;71.00
73651;BME280;61944;52.538;6.108;2023-03-01T13:15:29;102758.00;;;5.81;68.82
73651;BME280;61944;52.538;6.108;2023-03-01T13:17:57;102753.88;;;5.79;69.24
73651;BME280;61944;52.538;6.108;2023-03-01T13:20:33;102752.38;;;5.67;71.48
73651;BME280;61944;52.538;6.108;2023-03-01T13:23:07;102758.59;;;5.35;72.78
73651;BME280;61944;52.538;6.108;2023-03-01T13:25:34;102751.34;;;5.39;72.95
73651;BME280;61944;52.538;6.108;2023-03-01T13:31:02;102750.00;;;6.37;67.76
73651;BME280;61944;52.538;6.108;2023-03-01T13:35:54;102739.69;;;5.80;72.81
73651;BME280;61944;52.538;6.108;2023-03-01T13:41:08;102728.19;;;5.49;72.41
73651;BME280;61944;52.538;6.108;2023-03-01T13:43:36;102727.16;;;5.21;73.87
73651;BME280;61944;52.538;6.108;2023-03-01T13:46:09;102729.38;;;5.62;71.51
73651;BME280;61944;52.538;6.108;2023-03-01T13:48:37;102726.78;;;5.89;69.22
73651;BME280;61944;52.538;6.108;2023-03-01T13:51:07;102717.69;;;6.03;69.35
73651;BME280;61944;52.538;6.108;2023-03-01T13:53:36;102713.72;;;6.09;70.89
73651;BME280;61944;52.538;6.108;2023-03-01T13:56:10;102715.75;;;5.84;69.82
73651;BME280;61944;52.538;6.108;2023-03-01T14:01:33;102715.81;;;6.17;70.45
73651;BME280;61944;52.538;6.108;2023-03-01T14:04:01;102712.84;;;5.95;71.17
73651;BME280;61944;52.538;6.108;2023-03-01T14:06:31;102702.00;;;6.12;71.71
73651;BME280;61944;52.538;6.108;2023-03-01T14:09:16;102703.31;;;6.34;71.13
73651;BME280;61944;52.538;6.108;2023-03-01T14:14:38;102676.59;;;5.62;72.59
73651;BME280;61944;52.538;6.108;2023-03-01T14:19:57;102679.59;;;6.22;69.22
73651;BME280;61944;52.538;6.108;2023-03-01T14:22:34;102665.16;;;6.20;71.25
73651;BME280;61944;52.538;6.108;2023-03-01T14:25:14;102674.09;;;6.50;66.38
73651;BME280;61944;52.538;6.108;2023-03-01T14:27:42;102664.78;;;6.41;67.24
73651;BME280;61944;52.538;6.108;2023-03-01T14:30:15;102661.47;;;6.39;66.47
73651;BME280;61944;52.538;6.108;2023-03-01T14:32:42;102658.03;;;6.14;70.38
73651;BME280;61944;52.538;6.108;2023-03-01T14:35:29;102655.84;;;6.11;72.22